Time;durP1;ratioP1;P1;durP2;ratioP2;P2;SDS_P1;SDS_P2;PMS_P1;PMS_P2;Temp;Humidity;BMP_temperature;BMP_pressure;BME280_temperature;BME280_humidity;BME280_pressure;Samples;Min_cycle;Max_cycle;Signal;HPM_P1;HPM_P2
2023/01/29 00:01:48;;;;;;;6.18;5.72;;;1.70;99.90;;;;;;6191977;23;20256;-69
2023/01/29 00:04:15;;;;;;;6.45;5.95;;;1.70;99.90;;;;;;6208207;23;20235;-68
2023/01/29 00:06:42;;;;;;;7.22;6.63;;;1.70;99.90;;;;;;6181328;23;20240;-69
2023/01/29 00:09:10;;;;;;;6.80;6.05;;;1.70;99.90;;;;;;6187376;23;20182;-68
2023/01/29 00:11:39;;;;;;;6.63;6.05;;;1.70;99.90;;;;;;6189184;23;20261;-68
2023/01/29 00:14:06;;;;;;;7.13;6.53;;;1.80;99.90;;;;;;6196377;23;20206;-68
2023/01/29 00:16:33;;;;;;;7.30;5.90;;;1.70;99.90;;;;;;6184488;23;20191;-68
2023/01/29 00:19:01;;;;;;;7.28;6.70;;;1.70;99.90;;;;;;6195809;23;20264;-68
2023/01/29 00:21:29;;;;;;;6.70;6.10;;;1.70;99.90;;;;;;6208864;23;20243;-68
2023/01/29 00:23:57;;;;;;;7.43;6.18;;;1.70;99.90;;;;;;6195625;23;20283;-69
2023/01/29 00:26:24;;;;;;;6.50;6.00;;;1.70;99.90;;;;;;6206168;23;20190;-68
2023/01/29 00:28:52;;;;;;;6.25;5.65;;;1.60;99.90;;;;;;6202692;23;20198;-69
2023/01/29 00:31:21;;;;;;;6.25;5.65;;;1.70;99.90;;;;;;6195708;23;20186;-68
2023/01/29 00:33:48;;;;;;;6.60;6.00;;;1.70;99.90;;;;;;6193898;23;20288;-68
2023/01/29 00:36:17;;;;;;;6.50;5.90;;;1.70;99.90;;;;;;6204744;23;20723;-68
2023/01/29 00:38:45;;;;;;;7.78;7.07;;;1.70;99.90;;;;;;6201027;23;20491;-68
2023/01/29 00:46:46;;;;;;;6.03;5.53;;;1.60;99.90;;;;;;6183162;23;20189;-68
2023/01/29 00:49:13;;;;;;;7.32;6.60;;;1.60;99.90;;;;;;6207468;23;20522;-68
2023/01/29 00:51:40;;;;;;;6.50;5.60;;;1.60;99.90;;;;;;6181653;23;20526;-68
2023/01/29 00:54:07;;;;;;;6.90;5.85;;;1.60;99.90;;;;;;6186752;23;20206;-69
2023/01/29 00:56:36;;;;;;;6.93;6.22;;;1.60;99.90;;;;;;6191889;23;20199;-68
2023/01/29 00:59:05;;;;;;;6.97;6.38;;;1.60;99.90;;;;;;6186736;23;20259;-69
2023/01/29 01:04:31;;;;;;;5.65;5.20;;;1.60;99.90;;;;;;6110686;23;20279;-68
2023/01/29 01:06:58;;;;;;;6.68;6.07;;;1.50;99.90;;;;;;6121159;23;20371;-68
2023/01/29 01:12:10;;;;;;;6.75;6.20;;;1.50;99.90;;;;;;6177915;23;20179;-68
2023/01/29 01:14:41;;;;;;;6.63;6.13;;;1.40;99.90;;;;;;6182491;23;20685;-68
2023/01/29 01:17:09;;;;;;;6.57;5.50;;;1.50;99.90;;;;;;6202163;23;20182;-68
2023/01/29 01:19:36;;;;;;;6.88;6.28;;;1.40;99.90;;;;;;6190148;23;20610;-68
2023/01/29 01:22:03;;;;;;;6.13;5.63;;;1.40;99.90;;;;;;6197681;23;20612;-68
2023/01/29 01:24:30;;;;;;;7.07;6.47;;;1.40;99.90;;;;;;6196789;23;20286;-68
2023/01/29 01:26:57;;;;;;;6.65;6.05;;;1.30;99.90;;;;;;6205146;23;20186;-68
2023/01/29 01:29:24;;;;;;;6.25;5.72;;;1.30;99.90;;;;;;6199575;23;20219;-68
2023/01/29 01:31:54;;;;;;;6.35;5.75;;;1.30;99.90;;;;;;6207480;23;20189;-68
2023/01/29 01:34:21;;;;;;;7.78;6.50;;;1.30;99.90;;;;;;6191150;23;20505;-68
2023/01/29 01:36:49;;;;;;;7.15;6.55;;;1.30;99.90;;;;;;6203281;23;20227;-68
2023/01/29 01:39:15;;;;;;;6.68;6.07;;;1.30;99.90;;;;;;6185046;23;20669;-68
2023/01/29 01:41:43;;;;;;;6.80;6.20;;;1.30;99.90;;;;;;6188783;23;20586;-68
2023/01/29 01:44:43;;;;;;;7.00;6.40;;;1.30;99.90;;;;;;6185030;23;20240;-68
2023/01/29 01:47:12;;;;;;;6.72;6.13;;;1.30;99.90;;;;;;6189361;23;20252;-68
2023/01/29 01:49:39;;;;;;;7.15;5.55;;;1.20;99.90;;;;;;6195433;23;20204;-69
2023/01/29 01:52:08;;;;;;;6.53;5.93;;;1.20;99.90;;;;;;6187362;23;20238;-68
2023/01/29 01:54:35;;;;;;;6.05;5.55;;;1.10;99.90;;;;;;6203523;23;20233;-68
2023/01/29 01:57:10;;;;;;;6.75;6.18;;;1.10;99.90;;;;;;6193675;23;20186;-69
2023/01/29 01:59:40;;;;;;;6.93;6.32;;;1.10;99.90;;;;;;6196346;23;20680;-70
2023/01/29 02:10:30;;;;;;;6.82;6.00;;;1.00;99.90;;;;;;6195257;23;20217;-69
2023/01/29 02:12:57;;;;;;;6.05;5.65;;;1.00;99.90;;;;;;6193744;23;20190;-67
2023/01/29 02:15:24;;;;;;;7.20;6.55;;;1.00;99.90;;;;;;6180966;23;20265;-69
2023/01/29 02:17:51;;;;;;;7.05;6.45;;;1.00;99.90;;;;;;6177822;23;20318;-69
2023/01/29 02:20:24;;;;;;;6.55;5.90;;;1.00;99.90;;;;;;6202639;23;20221;-69
2023/01/29 02:23:15;;;;;;;6.88;5.93;;;1.00;99.90;;;;;;6202519;23;20237;-69
2023/01/29 02:26:07;;;;;;;6.45;5.85;;;0.90;99.90;;;;;;6204414;23;20276;-69
2023/01/29 02:28:42;;;;;;;6.45;5.95;;;1.00;99.90;;;;;;6202685;23;20186;-69
2023/01/29 02:31:16;;;;;;;6.03;5.53;;;0.90;99.90;;;;;;6208141;23;20177;-69
2023/01/29 02:33:54;;;;;;;6.65;6.03;;;0.90;99.90;;;;;;6187903;23;20205;-69
2023/01/29 02:36:31;;;;;;;6.07;5.57;;;0.90;99.90;;;;;;6193261;23;20701;-68
2023/01/29 02:39:06;;;;;;;7.85;6.40;;;0.90;99.90;;;;;;6183969;23;20189;-68
2023/01/29 02:41:39;;;;;;;6.30;5.80;;;0.90;99.90;;;;;;6192801;23;20193;-68
2023/01/29 02:44:17;;;;;;;6.97;6.28;;;0.90;99.90;;;;;;6194861;23;20250;-68
2023/01/29 02:46:52;;;;;;;7.10;6.50;;;0.90;99.90;;;;;;6190241;23;20622;-68
2023/01/29 02:49:24;;;;;;;6.25;5.75;;;0.90;99.90;;;;;;6185521;23;20269;-69
2023/01/29 02:51:58;;;;;;;6.53;6.03;;;0.90;99.90;;;;;;6204748;23;20621;-68
2023/01/29 02:54:32;;;;;;;6.63;6.03;;;0.90;99.90;;;;;;6207433;23;20653;-68
2023/01/29 02:57:04;;;;;;;6.50;6.00;;;0.90;99.90;;;;;;6185540;23;20182;-68
2023/01/29 02:59:39;;;;;;;6.45;5.85;;;0.90;99.90;;;;;;6197922;23;20221;-69
2023/01/29 03:02:10;;;;;;;6.90;6.30;;;0.90;99.90;;;;;;6192956;23;20573;-68
2023/01/29 03:04:45;;;;;;;7.20;5.70;;;0.90;99.90;;;;;;6199350;23;20565;-68
2023/01/29 03:07:40;;;;;;;7.20;6.50;;;0.80;99.90;;;;;;6202806;23;20664;-68
2023/01/29 03:10:11;;;;;;;7.80;6.60;;;0.80;99.90;;;;;;6191064;23;20240;-68
2023/01/29 03:12:40;;;;;;;7.07;6.55;;;0.80;99.90;;;;;;6199369;23;20224;-68
2023/01/29 03:15:15;;;;;;;7.30;6.45;;;0.80;99.90;;;;;;6198718;23;20536;-68
2023/01/29 03:17:46;;;;;;;7.38;6.68;;;0.80;99.90;;;;;;6177030;23;20188;-68
2023/01/29 03:20:17;;;;;;;6.60;6.10;;;0.80;99.90;;;;;;6202853;23;20278;-69
2023/01/29 03:22:49;;;;;;;6.70;6.10;;;0.70;99.90;;;;;;6194221;23;20186;-68
2023/01/29 03:33:45;;;;;;;7.50;6.80;;;0.80;99.90;;;;;;6187790;23;20267;-68
2023/01/29 03:36:16;;;;;;;9.38;6.15;;;0.70;99.90;;;;;;6184247;23;20182;-68
2023/01/29 03:38:44;;;;;;;7.00;6.40;;;0.70;99.90;;;;;;6188603;23;20579;-68
2023/01/29 03:41:22;;;;;;;6.70;6.10;;;0.70;99.90;;;;;;6189310;23;20264;-68
2023/01/29 03:43:56;;;;;;;6.50;5.90;;;0.90;99.90;;;;;;6206412;23;20680;-68
2023/01/29 03:46:30;;;;;;;8.23;6.00;;;0.70;99.90;;;;;;6191723;23;20593;-68
2023/01/29 03:49:07;;;;;;;6.25;5.75;;;0.70;99.90;;;;;;6196891;23;20228;-68
2023/01/29 03:51:38;;;;;;;6.72;6.05;;;0.70;99.90;;;;;;6188425;23;20578;-68
2023/01/29 03:54:12;;;;;;;7.25;6.28;;;0.60;99.90;;;;;;6199414;23;20594;-68
2023/01/29 03:56:50;;;;;;;7.22;6.53;;;0.60;99.90;;;;;;6183821;23;20190;-68
2023/01/29 03:59:27;;;;;;;6.80;6.15;;;0.60;99.90;;;;;;6184767;23;20269;-68
2023/01/29 04:02:00;;;;;;;6.97;6.20;;;0.60;99.90;;;;;;6192586;23;20186;-68
2023/01/29 04:04:31;;;;;;;6.90;6.30;;;0.60;99.90;;;;;;6178222;23;20372;-68
2023/01/29 04:07:05;;;;;;;8.18;6.00;;;0.60;99.90;;;;;;6199499;23;20600;-67
2023/01/29 04:09:37;;;;;;;6.82;6.22;;;0.60;99.90;;;;;;6205476;23;20190;-68
2023/01/29 04:12:08;;;;;;;7.45;6.63;;;0.60;99.90;;;;;;6202725;23;20242;-68
2023/01/29 04:14:36;;;;;;;6.75;6.07;;;0.60;99.90;;;;;;6187076;23;20277;-68
2023/01/29 04:17:09;;;;;;;6.85;6.25;;;0.60;99.90;;;;;;6201582;23;20210;-67
2023/01/29 04:19:37;;;;;;;6.93;6.32;;;0.50;99.90;;;;;;6199069;23;20209;-68
2023/01/29 04:22:10;;;;;;;6.75;6.15;;;0.50;99.90;;;;;;6203493;23;20185;-68
2023/01/29 04:24:37;;;;;;;7.53;6.80;;;0.50;99.90;;;;;;6196414;23;20212;-67
2023/01/29 04:27:19;;;;;;;7.57;6.88;;;0.40;99.90;;;;;;6182985;23;20721;-68
2023/01/29 04:30:00;;;;;;;7.05;6.32;;;0.40;99.90;;;;;;6188981;23;20196;-68
2023/01/29 04:32:34;;;;;;;7.45;6.75;;;0.40;99.90;;;;;;6206898;23;20264;-68
2023/01/29 04:35:10;;;;;;;7.95;7.13;;;0.40;99.90;;;;;;6192845;23;20189;-68
2023/01/29 04:37:43;;;;;;;7.10;6.40;;;0.40;99.90;;;;;;6183140;23;20656;-68
2023/01/29 04:40:20;;;;;;;6.72;6.03;;;0.40;99.90;;;;;;6189660;23;20755;-68
2023/01/29 04:42:53;;;;;;;7.20;6.50;;;0.40;99.90;;;;;;6207321;23;20236;-68
2023/01/29 04:45:28;;;;;;;7.45;6.75;;;0.40;99.90;;;;;;6202469;23;20186;-68
2023/01/29 04:48:07;;;;;;;7.90;6.75;;;0.40;99.90;;;;;;6192392;23;20200;-69
2023/01/29 04:50:38;;;;;;;6.63;6.13;;;0.40;99.90;;;;;;6181169;23;20263;-68
2023/01/29 04:53:12;;;;;;;6.72;6.20;;;0.50;99.90;;;;;;6183755;23;20537;-68
2023/01/29 04:55:45;;;;;;;6.45;5.85;;;0.50;99.90;;;;;;6179532;23;20587;-68
2023/01/29 04:58:18;;;;;;;6.40;5.85;;;0.50;99.90;;;;;;6181163;23;20540;-68
2023/01/29 05:00:50;;;;;;;6.65;6.05;;;0.50;99.90;;;;;;6184626;23;20270;-68
2023/01/29 05:03:19;;;;;;;6.68;6.10;;;0.50;99.90;;;;;;6207996;23;20549;-68
2023/01/29 05:05:49;;;;;;;6.60;6.10;;;0.50;99.90;;;;;;6197884;23;20182;-68
2023/01/29 05:08:18;;;;;;;6.95;5.95;;;0.50;99.90;;;;;;6187974;23;20264;-68
2023/01/29 05:10:48;;;;;;;6.35;5.85;;;0.50;99.90;;;;;;6197056;23;20181;-68
2023/01/29 05:13:16;;;;;;;6.43;5.82;;;0.50;99.90;;;;;;6193234;23;20285;-68
2023/01/29 05:15:47;;;;;;;6.55;5.95;;;0.50;99.90;;;;;;6183065;23;20182;-68
2023/01/29 05:18:14;;;;;;;6.65;5.95;;;0.50;99.90;;;;;;6184634;23;20209;-68
2023/01/29 05:20:44;;;;;;;7.55;6.85;;;0.50;99.90;;;;;;6208196;23;20262;-68
2023/01/29 05:23:16;;;;;;;6.55;5.95;;;0.50;99.90;;;;;;6192772;23;20288;-68
2023/01/29 05:25:45;;;;;;;7.50;6.78;;;0.40;99.90;;;;;;6183908;23;20672;-68
2023/01/29 05:28:15;;;;;;;8.13;7.00;;;0.40;99.90;;;;;;6191700;23;20222;-68
2023/01/29 05:30:44;;;;;;;6.95;6.32;;;0.50;99.90;;;;;;6184048;23;20183;-68
2023/01/29 05:33:14;;;;;;;7.30;6.60;;;0.50;99.90;;;;;;6187738;23;20206;-68
2023/01/29 05:35:42;;;;;;;7.07;6.38;;;0.50;99.90;;;;;;6193797;23;20190;-68
2023/01/29 05:38:10;;;;;;;8.65;6.95;;;0.60;99.90;;;;;;6178866;23;20186;-68
2023/01/29 05:40:37;;;;;;;6.80;6.15;;;0.60;99.90;;;;;;6185845;23;20262;-68
2023/01/29 05:43:05;;;;;;;7.80;7.10;;;0.70;99.90;;;;;;6180409;23;20668;-68
2023/01/29 05:45:33;;;;;;;6.45;5.85;;;0.70;99.90;;;;;;6193570;23;20190;-69
2023/01/29 05:48:00;;;;;;;6.15;5.65;;;0.70;99.90;;;;;;6195134;23;20689;-68
2023/01/29 05:50:27;;;;;;;6.75;6.13;;;0.70;99.90;;;;;;6189078;23;20273;-68
2023/01/29 05:53:00;;;;;;;6.90;6.30;;;0.70;99.90;;;;;;6200794;23;20234;-68
2023/01/29 05:55:28;;;;;;;7.47;6.70;;;0.70;99.90;;;;;;6193846;23;20195;-68
2023/01/29 05:57:55;;;;;;;6.82;6.20;;;0.70;99.90;;;;;;6201382;23;20186;-68
2023/01/29 06:00:23;;;;;;;7.50;6.90;;;0.70;99.90;;;;;;6192393;23;20677;-68
2023/01/29 06:02:50;;;;;;;7.82;7.03;;;0.70;99.90;;;;;;6179247;23;20202;-68
2023/01/29 06:05:17;;;;;;;7.68;6.88;;;0.70;99.90;;;;;;6184924;23;20192;-68
2023/01/29 06:07:45;;;;;;;6.78;6.18;;;0.70;99.90;;;;;;6202261;23;20595;-68
2023/01/29 06:10:15;;;;;;;7.20;6.60;;;0.70;99.90;;;;;;6208070;23;20193;-68
2023/01/29 06:12:44;;;;;;;8.13;7.32;;;0.80;99.90;;;;;;6207935;23;20727;-68
2023/01/29 06:15:14;;;;;;;7.85;7.07;;;0.80;99.90;;;;;;6199072;23;20198;-68
2023/01/29 06:17:41;;;;;;;6.95;6.35;;;0.80;99.90;;;;;;6189006;23;20183;-68
2023/01/29 06:20:11;;;;;;;6.82;6.22;;;0.70;99.90;;;;;;6191053;23;20178;-68
2023/01/29 06:22:38;;;;;;;7.60;6.80;;;0.60;99.90;;;;;;6200894;23;20226;-68
2023/01/29 06:25:06;;;;;;;6.75;6.15;;;0.50;99.90;;;;;;6208234;23;20625;-68
2023/01/29 06:27:35;;;;;;;8.00;6.82;;;0.50;99.90;;;;;;6194049;23;20190;-68
2023/01/29 06:30:02;;;;;;;7.10;6.40;;;0.50;99.90;;;;;;6201078;23;20242;-68
2023/01/29 06:32:29;;;;;;;7.70;7.00;;;0.50;99.90;;;;;;6212395;23;20181;-68
2023/01/29 06:34:56;;;;;;;7.35;6.75;;;0.50;99.90;;;;;;6213163;23;20206;-68
2023/01/29 06:37:23;;;;;;;7.85;7.15;;;0.50;99.90;;;;;;6193014;23;20186;-68
2023/01/29 06:39:50;;;;;;;7.40;6.70;;;0.50;99.90;;;;;;6190242;23;20197;-68
2023/01/29 06:42:17;;;;;;;7.65;6.60;;;0.50;99.90;;;;;;6198278;23;20209;-68
2023/01/29 06:44:46;;;;;;;7.45;6.75;;;0.50;99.90;;;;;;6208908;23;20289;-68
2023/01/29 06:47:13;;;;;;;7.43;6.72;;;0.50;99.90;;;;;;6186975;23;20186;-68
2023/01/29 06:49:40;;;;;;;7.07;6.32;;;0.50;99.90;;;;;;6199306;23;20579;-68
2023/01/29 06:52:07;;;;;;;7.40;6.63;;;0.50;99.90;;;;;;6197801;23;20190;-68
2023/01/29 06:54:34;;;;;;;7.10;6.43;;;0.60;99.90;;;;;;6203285;23;20205;-68
2023/01/29 06:57:01;;;;;;;7.55;5.93;;;0.60;99.90;;;;;;6195471;23;20191;-69
2023/01/29 06:59:28;;;;;;;7.43;6.45;;;0.60;99.90;;;;;;6179807;23;20352;-71
2023/01/29 07:01:56;;;;;;;8.70;6.95;;;0.60;99.90;;;;;;6194577;23;20217;-68
2023/01/29 07:04:23;;;;;;;7.75;6.25;;;0.60;99.90;;;;;;6207889;23;20233;-68
2023/01/29 07:06:50;;;;;;;5.80;5.30;;;0.60;99.90;;;;;;6197937;23;20261;-68
2023/01/29 07:09:17;;;;;;;7.80;7.05;;;0.60;99.90;;;;;;6180509;23;20332;-68
2023/01/29 07:11:44;;;;;;;7.50;6.78;;;0.60;99.90;;;;;;6194645;23;20877;-68
2023/01/29 07:14:11;;;;;;;7.20;6.50;;;0.60;99.90;;;;;;6186081;23;20198;-68
2023/01/29 07:16:38;;;;;;;7.88;7.07;;;0.60;99.90;;;;;;6191948;23;20221;-68
2023/01/29 07:19:07;;;;;;;7.28;6.68;;;0.60;99.90;;;;;;6184382;23;21077;-68
2023/01/29 07:21:34;;;;;;;7.50;6.75;;;0.60;99.90;;;;;;6197156;23;20288;-68
2023/01/29 07:24:01;;;;;;;7.20;6.50;;;0.60;99.90;;;;;;6186320;23;20266;-68
2023/01/29 07:26:28;;;;;;;6.80;6.20;;;0.60;99.90;;;;;;6189973;23;20660;-69
2023/01/29 07:28:55;;;;;;;6.63;6.13;;;0.70;99.90;;;;;;6188033;23;20549;-69
2023/01/29 07:31:22;;;;;;;7.22;6.53;;;0.70;99.90;;;;;;6180897;23;20193;-69
2023/01/29 07:33:49;;;;;;;6.95;6.20;;;0.70;99.90;;;;;;6184800;23;20213;-68
2023/01/29 07:36:17;;;;;;;7.65;6.30;;;0.70;99.90;;;;;;6200364;23;20182;-68
2023/01/29 07:38:48;;;;;;;8.27;6.65;;;0.80;99.90;;;;;;6186823;23;20207;-69
2023/01/29 07:41:15;;;;;;;8.20;6.50;;;0.80;99.90;;;;;;6185754;23;20210;-68
2023/01/29 07:43:42;;;;;;;6.50;5.85;;;0.80;99.90;;;;;;6192551;23;20321;-68
2023/01/29 07:46:09;;;;;;;6.82;6.22;;;0.80;99.90;;;;;;6190067;23;20592;-69
2023/01/29 07:48:37;;;;;;;7.43;6.28;;;0.80;99.90;;;;;;6178252;23;20659;-69
2023/01/29 07:51:04;;;;;;;7.15;6.55;;;0.80;99.90;;;;;;6181000;23;20187;-67
2023/01/29 07:53:32;;;;;;;6.55;5.95;;;0.80;99.90;;;;;;6182344;23;20257;-68
2023/01/29 07:55:59;;;;;;;6.70;6.07;;;0.80;99.90;;;;;;6174314;23;20667;-67
2023/01/29 07:58:26;;;;;;;9.55;7.78;;;0.90;99.90;;;;;;6178373;23;20204;-83
2023/01/29 08:00:53;;;;;;;7.43;6.78;;;0.90;99.90;;;;;;6183646;23;20217;-67
2023/01/29 08:03:20;;;;;;;7.30;6.60;;;0.90;99.90;;;;;;6187411;23;20204;-67
2023/01/29 08:05:47;;;;;;;6.93;6.32;;;1.00;99.90;;;;;;6192256;23;20252;-67
2023/01/29 08:08:15;;;;;;;7.10;6.50;;;1.00;99.90;;;;;;6188036;23;20219;-67
2023/01/29 08:10:43;;;;;;;6.10;5.40;;;1.00;99.90;;;;;;6179055;23;20179;-69
2023/01/29 08:13:11;;;;;;;6.00;5.03;;;1.20;99.90;;;;;;6177354;23;20305;-68
2023/01/29 08:15:38;;;;;;;9.15;5.40;;;2.20;99.90;;;;;;6194825;23;20704;-69
2023/01/29 08:18:05;;;;;;;5.90;5.40;;;2.70;99.90;;;;;;6191459;23;20227;-67
2023/01/29 08:20:32;;;;;;;6.22;5.40;;;3.00;99.90;;;;;;6173732;23;20187;-68
2023/01/29 08:23:01;;;;;;;7.05;6.45;;;2.90;99.90;;;;;;6193706;23;20213;-67
2023/01/29 08:25:29;;;;;;;6.72;6.13;;;2.70;99.90;;;;;;6181144;23;20300;-67
2023/01/29 08:27:58;;;;;;;6.53;5.93;;;2.50;99.90;;;;;;6182654;23;20598;-67
2023/01/29 08:30:26;;;;;;;6.43;5.88;;;2.40;99.90;;;;;;6185822;23;20220;-68
2023/01/29 08:32:53;;;;;;;7.78;7.00;;;2.30;99.90;;;;;;6186466;23;20225;-67
2023/01/29 08:35:21;;;;;;;7.97;7.20;;;2.20;99.90;;;;;;6180775;23;20208;-67
2023/01/29 08:37:54;;;;;;;7.00;6.30;;;2.10;99.90;;;;;;6180070;23;20198;-68
2023/01/29 08:40:21;;;;;;;7.38;6.68;;;2.00;99.90;;;;;;6185331;23;20582;-71
2023/01/29 08:42:48;;;;;;;7.60;6.90;;;1.80;99.90;;;;;;6186747;23;20239;-66
2023/01/29 08:45:17;;;;;;;7.80;7.10;;;1.80;99.90;;;;;;6198252;23;20827;-67
2023/01/29 08:47:47;;;;;;;7.32;6.60;;;1.70;99.90;;;;;;6181779;23;20186;-67
2023/01/29 08:50:15;;;;;;;7.30;6.60;;;1.60;99.90;;;;;;6176294;23;20187;-67
2023/01/29 08:52:42;;;;;;;8.70;6.63;;;1.60;99.90;;;;;;6188574;23;20206;-67
2023/01/29 08:55:10;;;;;;;7.65;6.80;;;1.70;99.90;;;;;;6185304;23;20720;-67
2023/01/29 08:57:37;;;;;;;6.95;6.25;;;1.70;99.90;;;;;;6186367;23;20194;-67
2023/01/29 09:00:05;;;;;;;7.65;6.97;;;1.70;99.90;;;;;;6189054;23;20207;-67
2023/01/29 09:02:33;;;;;;;7.55;6.90;;;1.70;99.90;;;;;;6180601;23;20647;-66
2023/01/29 09:05:00;;;;;;;7.25;6.65;;;1.70;99.90;;;;;;6181344;23;20651;-67
2023/01/29 09:07:28;;;;;;;7.68;6.95;;;1.70;99.90;;;;;;6180189;23;20190;-67
2023/01/29 09:09:56;;;;;;;7.88;7.15;;;1.80;99.90;;;;;;6196719;23;20631;-67
2023/01/29 09:12:23;;;;;;;7.85;7.00;;;1.90;99.90;;;;;;6183336;23;20290;-67
2023/01/29 09:14:50;;;;;;;9.10;7.15;;;2.00;99.90;;;;;;6193215;23;20193;-67
2023/01/29 09:17:17;;;;;;;8.15;7.32;;;2.10;99.90;;;;;;6183760;23;20294;-67
2023/01/29 09:19:45;;;;;;;7.80;7.10;;;2.20;99.90;;;;;;6190788;23;20647;-67
2023/01/29 09:22:12;;;;;;;9.13;8.23;;;2.20;99.90;;;;;;6181505;23;20235;-67
2023/01/29 09:24:39;;;;;;;8.77;7.97;;;2.20;99.90;;;;;;6181294;23;20187;-67
2023/01/29 09:27:06;;;;;;;12.48;11.20;;;2.20;99.90;;;;;;6178161;23;20246;-67
2023/01/29 09:29:33;;;;;;;10.27;9.38;;;2.30;99.90;;;;;;6173594;23;20185;-67
2023/01/29 09:32:00;;;;;;;13.07;12.07;;;2.30;99.90;;;;;;6182663;23;20537;-67
2023/01/29 09:34:28;;;;;;;10.30;9.30;;;2.50;99.90;;;;;;6190566;23;20645;-67
2023/01/29 09:36:56;;;;;;;7.82;7.00;;;2.50;99.90;;;;;;6188662;23;20198;-68
2023/01/29 09:39:23;;;;;;;7.82;7.22;;;2.60;99.90;;;;;;6179768;23;20260;-67
2023/01/29 09:41:56;;;;;;;8.45;7.75;;;2.70;99.90;;;;;;6185729;23;20234;-67
2023/01/29 09:44:38;;;;;;;8.52;7.70;;;2.80;99.90;;;;;;6196300;23;20221;-68
2023/01/29 09:47:11;;;;;;;7.70;7.10;;;2.90;99.90;;;;;;6189813;23;20193;-68
2023/01/29 09:49:43;;;;;;;8.13;7.43;;;3.00;99.90;;;;;;6161352;23;20212;-68
2023/01/29 09:52:17;;;;;;;7.60;6.90;;;2.90;99.90;;;;;;6185111;23;20223;-68
2023/01/29 09:54:51;;;;;;;7.32;6.75;;;2.70;99.90;;;;;;6188846;23;20177;-82
2023/01/29 09:57:24;;;;;;;9.13;8.23;;;2.50;99.90;;;;;;6185880;23;20702;-69
2023/01/29 09:59:51;;;;;;;8.90;8.10;;;2.60;99.90;;;;;;6182060;23;20195;-68
2023/01/29 10:02:45;;;;;;;7.68;7.07;;;2.50;99.90;;;;;;6199741;23;20513;-69
2023/01/29 10:05:26;;;;;;;8.07;7.38;;;2.50;99.90;;;;;;6183546;23;20186;-69
2023/01/29 10:08:24;;;;;;;8.00;7.30;;;2.30;99.90;;;;;;6180985;23;20215;-69
2023/01/29 10:10:59;;;;;;;7.60;6.80;;;2.30;99.90;;;;;;6184864;23;20742;-69
2023/01/29 10:13:32;;;;;;;11.60;10.15;;;2.30;99.90;;;;;;6190572;23;20231;-70
2023/01/29 10:16:15;;;;;;;8.10;7.40;;;2.40;99.90;;;;;;6179508;23;20183;-69
2023/01/29 10:19:00;;;;;;;7.22;6.63;;;2.60;99.90;;;;;;6192104;23;20175;-70
2023/01/29 10:21:48;;;;;;;7.50;6.90;;;2.70;99.90;;;;;;6183214;23;20221;-69
2023/01/29 10:24:28;;;;;;;8.38;7.47;;;2.70;99.90;;;;;;6174172;23;20182;-70
2023/01/29 10:26:55;;;;;;;7.90;7.20;;;2.70;99.90;;;;;;6184320;23;20191;-69
2023/01/29 10:29:24;;;;;;;8.63;7.82;;;2.80;99.90;;;;;;6185622;23;20189;-69
2023/01/29 10:31:55;;;;;;;8.02;7.32;;;2.90;99.90;;;;;;6186272;23;20730;-70
2023/01/29 10:34:29;;;;;;;8.73;8.02;;;2.90;99.90;;;;;;6188889;23;20184;-70
2023/01/29 10:36:56;;;;;;;8.00;7.25;;;2.90;99.90;;;;;;6187071;23;20184;-70
2023/01/29 10:39:26;;;;;;;8.18;7.45;;;2.90;99.90;;;;;;6188567;23;20321;-70
2023/01/29 10:42:21;;;;;;;9.25;8.38;;;3.00;99.90;;;;;;6185647;23;20204;-70
2023/01/29 10:45:03;;;;;;;8.80;8.00;;;2.90;99.90;;;;;;6188730;23;20188;-69
2023/01/29 10:48:04;;;;;;;11.55;7.82;;;2.80;99.90;;;;;;6177565;23;20570;-69
2023/01/29 10:50:45;;;;;;;8.68;7.65;;;2.70;99.90;;;;;;6178229;23;20284;-70
2023/01/29 10:53:38;;;;;;;8.50;7.80;;;2.80;99.90;;;;;;6201447;23;20721;-69
2023/01/29 10:56:19;;;;;;;9.10;8.27;;;2.80;99.90;;;;;;6181465;23;20247;-70
2023/01/29 10:58:51;;;;;;;8.63;7.93;;;2.80;99.90;;;;;;6194168;23;20613;-69
2023/01/29 11:01:18;;;;;;;8.35;7.55;;;2.80;99.90;;;;;;6192819;23;20202;-70
2023/01/29 11:03:45;;;;;;;8.98;8.23;;;2.80;99.90;;;;;;6197675;23;20307;-69
2023/01/29 11:06:17;;;;;;;9.13;8.35;;;2.90;99.90;;;;;;6188073;23;20193;-69
2023/01/29 11:08:52;;;;;;;8.90;8.20;;;3.00;99.90;;;;;;6186219;23;20185;-70
2023/01/29 11:11:23;;;;;;;8.25;7.60;;;3.20;99.90;;;;;;6190767;23;20514;-70
2023/01/29 11:13:56;;;;;;;8.05;7.35;;;3.30;99.90;;;;;;6194594;23;20610;-70
2023/01/29 11:16:23;;;;;;;8.68;7.88;;;3.00;99.90;;;;;;6195328;23;20639;-70
2023/01/29 11:18:56;;;;;;;8.45;7.75;;;3.40;99.90;;;;;;6191401;23;20269;-69
2023/01/29 11:21:24;;;;;;;9.63;8.73;;;3.20;99.90;;;;;;6190634;23;20592;-70
2023/01/29 11:24:05;;;;;;;8.82;8.10;;;3.00;99.90;;;;;;6188183;23;20271;-70
2023/01/29 11:26:35;;;;;;;10.02;9.02;;;2.90;99.90;;;;;;6186905;23;20190;-70
2023/01/29 11:29:02;;;;;;;9.55;8.77;;;2.90;99.90;;;;;;6194592;23;20189;-70
2023/01/29 11:31:35;;;;;;;9.45;8.10;;;2.80;99.90;;;;;;6188708;23;20194;-70
2023/01/29 11:34:05;;;;;;;9.25;8.45;;;2.80;99.90;;;;;;6189384;23;20708;-70
2023/01/29 11:36:37;;;;;;;9.48;8.68;;;2.80;99.90;;;;;;6193559;23;20187;-70
2023/01/29 11:39:18;;;;;;;9.75;8.88;;;2.90;99.90;;;;;;6190758;23;20182;-69
2023/01/29 11:41:49;;;;;;;10.02;9.13;;;3.00;99.90;;;;;;6193375;23;20191;-70
2023/01/29 11:44:22;;;;;;;10.25;8.82;;;3.20;99.90;;;;;;6186478;23;20183;-70
2023/01/29 11:46:49;;;;;;;9.60;8.80;;;3.30;99.90;;;;;;6178407;23;20221;-70
2023/01/29 11:49:28;;;;;;;9.80;8.80;;;3.20;99.90;;;;;;6190775;23;20599;-70
2023/01/29 11:51:57;;;;;;;9.95;8.95;;;3.30;99.90;;;;;;6179746;23;20208;-70
2023/01/29 11:54:29;;;;;;;9.02;8.23;;;3.20;99.90;;;;;;6187034;23;20276;-71
2023/01/29 11:56:58;;;;;;;10.10;9.10;;;3.10;99.90;;;;;;6184418;23;20196;-73
2023/01/29 11:59:35;;;;;;;10.65;9.75;;;3.10;99.90;;;;;;6179466;23;20182;-71
2023/01/29 12:02:22;;;;;;;10.00;9.10;;;3.20;99.90;;;;;;6187765;23;20213;-70
2023/01/29 12:04:50;;;;;;;9.68;8.80;;;3.30;99.90;;;;;;6195331;23;20193;-70
2023/01/29 12:07:18;;;;;;;10.73;9.77;;;3.40;99.90;;;;;;6191823;23;20200;-69
2023/01/29 12:09:51;;;;;;;10.55;9.55;;;3.50;99.90;;;;;;6188407;23;20268;-69
2023/01/29 12:12:32;;;;;;;9.45;7.90;;;3.60;99.90;;;;;;6186496;23;20217;-73
2023/01/29 12:15:24;;;;;;;10.93;9.82;;;3.60;99.90;;;;;;6190949;23;20186;-70
2023/01/29 12:17:57;;;;;;;10.38;9.38;;;3.60;99.90;;;;;;6191510;23;20717;-69
2023/01/29 12:20:30;;;;;;;10.85;9.85;;;3.80;99.90;;;;;;6188960;23;20186;-70
2023/01/29 12:23:21;;;;;;;10.32;9.43;;;4.00;99.90;;;;;;6188351;23;20222;-69
2023/01/29 12:25:57;;;;;;;11.02;10.00;;;4.00;99.90;;;;;;6188037;23;20221;-70
2023/01/29 12:28:36;;;;;;;10.95;9.95;;;4.10;99.90;;;;;;6188315;23;20188;-70
2023/01/29 12:31:18;;;;;;;10.48;9.57;;;4.30;99.90;;;;;;6184615;23;20181;-70
2023/01/29 12:33:51;;;;;;;10.45;9.55;;;4.40;99.90;;;;;;6189909;23;20755;-69
2023/01/29 12:36:24;;;;;;;10.20;9.38;;;4.40;99.90;;;;;;6190153;23;20185;-70
2023/01/29 12:38:52;;;;;;;11.32;10.32;;;4.40;99.90;;;;;;6186506;23;20278;-69
2023/01/29 12:41:32;;;;;;;10.52;9.52;;;4.50;99.90;;;;;;6188221;23;20234;-70
2023/01/29 12:44:05;;;;;;;10.77;9.85;;;4.50;99.90;;;;;;6198816;23;20549;-69
2023/01/29 12:46:37;;;;;;;10.88;9.98;;;4.40;99.90;;;;;;6196325;23;20190;-69
2023/01/29 12:49:12;;;;;;;10.95;10.05;;;4.20;99.90;;;;;;6194765;23;20190;-69
2023/01/29 12:51:48;;;;;;;10.77;9.77;;;4.40;99.90;;;;;;6184931;23;20184;-69
2023/01/29 12:54:22;;;;;;;10.20;9.25;;;4.60;99.90;;;;;;6185488;23;20272;-70
2023/01/29 12:56:53;;;;;;;9.68;8.88;;;4.80;99.90;;;;;;6184888;23;20194;-71
2023/01/29 12:59:28;;;;;;;12.10;11.05;;;4.90;99.90;;;;;;6183857;23;20197;-70
2023/01/29 13:01:58;;;;;;;11.30;10.30;;;5.00;99.90;;;;;;6189308;23;20672;-69
2023/01/29 13:04:36;;;;;;;10.70;9.75;;;5.10;99.90;;;;;;6181297;23;20296;-71
2023/01/29 13:07:11;;;;;;;11.50;10.40;;;5.00;99.90;;;;;;6181347;23;20190;-71
2023/01/29 13:09:45;;;;;;;10.80;9.82;;;4.50;99.90;;;;;;6163036;23;20185;-72
2023/01/29 13:12:16;;;;;;;11.60;10.35;;;4.30;99.90;;;;;;6173794;23;20678;-72
2023/01/29 13:14:51;;;;;;;12.07;10.88;;;4.30;99.90;;;;;;6166597;23;20190;-72
2023/01/29 13:17:25;;;;;;;10.30;9.40;;;4.30;99.90;;;;;;6169616;23;20197;-72
2023/01/29 13:19:55;;;;;;;11.55;10.57;;;4.20;99.90;;;;;;6171474;23;20182;-72
2023/01/29 13:22:25;;;;;;;10.70;9.80;;;4.10;99.90;;;;;;6185347;23;20261;-72
2023/01/29 13:24:53;;;;;;;11.10;10.00;;;4.10;99.90;;;;;;6172028;23;20170;-73
2023/01/29 13:27:24;;;;;;;11.55;10.52;;;4.10;99.90;;;;;;6171872;23;20182;-72
2023/01/29 13:29:54;;;;;;;9.68;8.85;;;4.20;99.90;;;;;;6175696;23;20185;-73
2023/01/29 13:32:24;;;;;;;10.57;9.63;;;4.40;99.90;;;;;;6193598;23;20205;-72
2023/01/29 13:34:53;;;;;;;10.95;10.02;;;4.60;99.90;;;;;;6180252;23;20187;-71
2023/01/29 13:37:28;;;;;;;10.77;9.77;;;4.70;99.90;;;;;;6176726;23;20264;-72
2023/01/29 13:39:57;;;;;;;10.70;9.57;;;4.80;99.90;;;;;;6185101;23;20226;-73
2023/01/29 13:42:33;;;;;;;10.63;9.73;;;4.80;99.90;;;;;;6176856;23;20230;-71
2023/01/29 13:45:05;;;;;;;10.23;9.30;;;4.80;99.90;;;;;;6179890;23;20185;-73